createdAt,value
2023-03-24T00:02:07.060Z,9.60
2023-03-24T00:05:15.989Z,9.74
2023-03-24T00:08:18.649Z,9.82
2023-03-24T00:11:21.639Z,9.81
2023-03-24T00:14:25.298Z,9.80
2023-03-24T00:17:29.590Z,9.77
2023-03-24T00:20:33.063Z,9.69
2023-03-24T00:23:35.919Z,9.62
2023-03-24T00:26:40.314Z,9.58
2023-03-24T00:29:43.083Z,9.57
2023-03-24T00:32:46.486Z,9.52
2023-03-24T00:35:49.856Z,9.45
2023-03-24T00:38:53.651Z,9.39
2023-03-24T00:41:58.787Z,9.35
2023-03-24T00:45:03.825Z,9.26
2023-03-24T00:48:06.489Z,9.17
2023-03-24T00:51:11.101Z,9.05
2023-03-24T00:54:14.029Z,9.03
2023-03-24T00:57:22.326Z,9.03
2023-03-24T01:00:26.718Z,8.96
2023-03-24T01:03:29.522Z,8.95
2023-03-24T01:06:32.371Z,8.87
2023-03-24T01:09:36.416Z,8.84
2023-03-24T01:12:39.294Z,8.86
2023-03-24T01:15:41.858Z,8.79
2023-03-24T01:18:45.260Z,8.73
2023-03-24T01:21:50.977Z,8.67
2023-03-24T01:24:53.555Z,8.62
2023-03-24T01:27:56.391Z,8.77
2023-03-24T01:30:58.914Z,8.90
2023-03-24T01:34:02.008Z,8.88
2023-03-24T01:37:04.572Z,8.76
2023-03-24T01:40:10.113Z,8.63
2023-03-24T01:43:27.347Z,8.60
2023-03-24T01:46:29.880Z,8.50
2023-03-24T01:49:41.818Z,8.48
2023-03-24T01:52:44.750Z,8.45
2023-03-24T01:55:49.080Z,8.36
2023-03-24T01:59:02.588Z,8.25
2023-03-24T02:02:17.709Z,8.21
2023-03-24T02:05:32.266Z,8.22
2023-03-24T02:08:41.523Z,8.26
2023-03-24T02:11:44.940Z,8.28
2023-03-24T02:14:47.637Z,8.21
2023-03-24T02:18:34.902Z,8.17
2023-03-24T02:21:57.835Z,8.19
2023-03-24T02:25:12.188Z,8.14
2023-03-24T02:28:53.171Z,8.09
2023-03-24T02:32:04.259Z,8.10
2023-03-24T02:35:27.915Z,8.07
2023-03-24T02:38:51.575Z,8.11
2023-03-24T02:42:07.387Z,8.11
2023-03-24T02:45:16.600Z,8.08
2023-03-24T02:48:34.139Z,8.02
2023-03-24T02:51:43.423Z,7.95
2023-03-24T02:55:02.776Z,7.90
2023-03-24T02:58:11.669Z,7.93
2023-03-24T03:01:54.514Z,7.98
2023-03-24T03:05:19.213Z,7.95
2023-03-24T03:08:24.022Z,7.85
2023-03-24T03:11:26.911Z,7.85
2023-03-24T03:14:41.935Z,7.82
2023-03-24T03:17:53.300Z,7.76
2023-03-24T03:21:02.192Z,7.77
2023-03-24T03:24:13.761Z,7.76
2023-03-24T03:27:21.115Z,7.72
2023-03-24T03:30:34.316Z,7.63
2023-03-24T03:33:46.002Z,7.60
2023-03-24T03:37:00.651Z,7.52
2023-03-24T03:40:14.947Z,7.45
2023-03-24T03:43:24.025Z,7.39
2023-03-24T03:46:27.313Z,7.37
2023-03-24T03:49:31.733Z,7.39
2023-03-24T03:52:39.591Z,7.40
2023-03-24T03:55:42.332Z,7.37
2023-03-24T03:58:47.236Z,7.34
2023-03-24T04:01:50.012Z,7.31
2023-03-24T04:05:20.876Z,7.22
2023-03-24T04:08:37.600Z,7.18
2023-03-24T04:12:38.023Z,7.15
2023-03-24T04:16:18.062Z,7.11
2023-03-24T04:19:55.876Z,7.08
2023-03-24T04:23:09.470Z,7.02
2023-03-24T04:26:17.056Z,7.04
2023-03-24T04:29:46.802Z,7.05
2023-03-24T04:33:00.119Z,6.97
2023-03-24T04:36:19.686Z,6.98
2023-03-24T04:39:58.771Z,7.06
2023-03-24T04:43:05.607Z,7.06
2023-03-24T04:46:09.565Z,6.98
2023-03-24T04:49:39.958Z,7.03
2023-03-24T04:52:43.178Z,7.07
2023-03-24T04:55:49.990Z,7.09
2023-03-24T04:59:02.273Z,7.13
2023-03-24T05:02:04.872Z,7.20
2023-03-24T05:05:11.943Z,7.26
2023-03-24T05:08:20.345Z,7.28
2023-03-24T05:11:23.689Z,7.38
2023-03-24T05:14:36.344Z,7.37
2023-03-24T05:17:40.928Z,7.39
2023-03-24T05:20:43.738Z,7.49
2023-03-24T05:23:53.564Z,7.58
2023-03-24T05:26:56.407Z,7.69
2023-03-24T05:29:59.021Z,7.86
2023-03-24T05:33:04.405Z,7.96
2023-03-24T05:36:07.376Z,8.12
2023-03-24T05:39:10.403Z,8.17
2023-03-24T05:42:22.185Z,8.27
2023-03-24T05:45:25.470Z,8.44
2023-03-24T05:48:28.325Z,8.60
2023-03-24T05:51:49.371Z,8.77
2023-03-24T05:54:52.388Z,8.93
2023-03-24T05:58:02.015Z,9.17
2023-03-24T06:01:12.145Z,9.36
2023-03-24T06:04:15.715Z,9.50
2023-03-24T06:07:18.591Z,9.61
2023-03-24T06:10:26.349Z,9.71
2023-03-24T06:13:30.337Z,9.80
2023-03-24T06:16:34.222Z,9.88
2023-03-24T06:19:40.728Z,9.97
2023-03-24T06:23:01.038Z,10.03
2023-03-24T06:26:12.592Z,10.18
2023-03-24T06:29:32.123Z,10.32
2023-03-24T06:32:34.825Z,10.40
2023-03-24T06:35:37.588Z,10.46
2023-03-24T06:38:47.195Z,10.56
2023-03-24T06:41:54.303Z,10.68
2023-03-24T06:44:56.863Z,10.82
2023-03-24T06:47:59.750Z,10.94
2023-03-24T06:51:03.154Z,11.05
2023-03-24T06:54:05.808Z,11.22
2023-03-24T06:57:08.502Z,11.42
2023-03-24T07:00:31.188Z,11.63
2023-03-24T07:03:54.421Z,11.82
2023-03-24T07:08:08.262Z,12.07
2023-03-24T07:11:12.496Z,12.47
2023-03-24T07:14:26.299Z,12.66
2023-03-24T07:17:30.455Z,12.94
2023-03-24T07:20:47.532Z,13.26
2023-03-24T07:23:52.533Z,13.58
2023-03-24T07:27:04.196Z,13.86
2023-03-24T07:30:09.223Z,13.99
2023-03-24T07:33:15.826Z,14.22
2023-03-24T07:36:20.706Z,14.31
2023-03-24T07:39:23.791Z,14.36
2023-03-24T07:42:27.099Z,14.49
2023-03-24T07:45:54.961Z,14.62
2023-03-24T07:49:03.235Z,14.69
2023-03-24T07:52:11.512Z,14.70
2023-03-24T07:55:18.750Z,14.88
2023-03-24T07:58:29.756Z,15.11
2023-03-24T08:01:46.118Z,15.20
2023-03-24T08:04:54.796Z,15.29
2023-03-24T08:08:26.725Z,15.45
2023-03-24T08:11:29.372Z,15.65
2023-03-24T08:14:31.926Z,15.77
2023-03-24T08:17:34.724Z,15.83
2023-03-24T08:20:42.026Z,15.85
2023-03-24T08:23:46.222Z,15.92
2023-03-24T08:26:49.172Z,16.14
2023-03-24T08:29:51.882Z,16.18
2023-03-24T08:32:58.154Z,16.31
2023-03-24T08:36:01.042Z,16.36
2023-03-24T08:39:04.383Z,16.35
2023-03-24T08:42:07.151Z,16.20
2023-03-24T08:45:12.848Z,16.29
2023-03-24T08:48:15.758Z,16.29
2023-03-24T08:51:18.438Z,16.29
2023-03-24T08:54:23.720Z,16.39
2023-03-24T08:57:26.606Z,16.31
2023-03-24T09:00:29.349Z,16.30
2023-03-24T09:03:32.205Z,16.42
2023-03-24T09:06:34.727Z,16.40
2023-03-24T09:09:37.482Z,16.53
2023-03-24T09:12:42.054Z,16.57
2023-03-24T09:15:53.403Z,16.68
2023-03-24T09:18:56.096Z,16.81
2023-03-24T09:21:58.553Z,16.75
2023-03-24T09:25:01.342Z,16.86
2023-03-24T09:28:04.580Z,17.03
2023-03-24T09:31:07.282Z,17.10
2023-03-24T09:34:09.853Z,17.09
2023-03-24T09:37:12.439Z,17.31
2023-03-24T09:40:25.019Z,17.28
2023-03-24T09:43:50.018Z,17.39
2023-03-24T09:47:17.759Z,17.76
2023-03-24T09:50:43.497Z,17.87
2023-03-24T09:54:03.530Z,17.91
2023-03-24T09:57:17.383Z,18.05
2023-03-24T10:00:26.499Z,18.07
2023-03-24T10:03:29.986Z,18.01
2023-03-24T10:06:42.527Z,18.00
2023-03-24T10:09:51.968Z,18.30
2023-03-24T10:13:05.753Z,18.41
2023-03-24T10:16:19.621Z,18.57
2023-03-24T10:19:40.839Z,18.58
2023-03-24T10:22:55.524Z,18.72
2023-03-24T10:26:30.032Z,18.82
2023-03-24T10:29:35.377Z,18.91
2023-03-24T10:32:39.023Z,18.70
2023-03-24T10:35:44.097Z,18.79
2023-03-24T10:38:47.880Z,18.82
2023-03-24T10:41:52.747Z,18.66
2023-03-24T10:45:05.801Z,18.67
2023-03-24T10:48:09.713Z,18.67
2023-03-24T10:51:27.923Z,18.70
2023-03-24T10:54:32.007Z,18.95
2023-03-24T10:57:35.231Z,19.14
2023-03-24T11:00:42.293Z,19.38
2023-03-24T11:03:49.626Z,19.46
2023-03-24T11:07:23.296Z,19.44
2023-03-24T11:10:27.427Z,19.79
2023-03-24T11:13:34.676Z,20.08
2023-03-24T11:16:43.550Z,20.07
2023-03-24T11:19:57.604Z,20.26
2023-03-24T11:23:25.364Z,20.34
2023-03-24T11:26:33.937Z,20.20
2023-03-24T11:29:43.631Z,20.25
2023-03-24T11:32:48.521Z,20.34
2023-03-24T11:35:59.258Z,20.43
2023-03-24T11:39:18.551Z,20.77
2023-03-24T11:42:27.798Z,20.72
2023-03-24T11:45:41.497Z,21.06
2023-03-24T11:49:00.364Z,21.05
2023-03-24T11:52:09.658Z,21.33
2023-03-24T11:55:19.076Z,21.63
2023-03-24T11:58:52.563Z,21.79
2023-03-24T12:02:18.219Z,21.96
2023-03-24T12:05:31.864Z,21.77
2023-03-24T12:08:46.032Z,21.86
2023-03-24T12:12:24.429Z,21.82
2023-03-24T12:16:07.806Z,21.89
2023-03-24T12:19:13.363Z,22.00
2023-03-24T12:22:39.272Z,22.13
2023-03-24T12:26:10.524Z,21.79
2023-03-24T12:29:54.560Z,21.96
2023-03-24T12:33:24.383Z,22.18
2023-03-24T12:37:15.260Z,22.44
2023-03-24T12:40:46.801Z,22.55
2023-03-24T12:44:24.099Z,22.83
2023-03-24T12:47:41.701Z,22.77
2023-03-24T12:51:02.191Z,22.94
2023-03-24T12:54:16.834Z,23.31
2023-03-24T12:57:24.876Z,23.73
2023-03-24T13:00:34.254Z,24.24
2023-03-24T13:04:05.959Z,23.76
2023-03-24T13:07:14.839Z,23.63
2023-03-24T13:10:27.117Z,23.54
2023-03-24T13:13:37.596Z,23.34
2023-03-24T13:16:40.851Z,23.19
2023-03-24T13:19:51.886Z,23.02
2023-03-24T13:22:56.642Z,23.04
2023-03-24T13:26:05.439Z,23.34
2023-03-24T13:29:19.783Z,23.99
2023-03-24T13:32:25.169Z,24.17
2023-03-24T13:35:36.862Z,24.32
2023-03-24T13:38:44.048Z,24.81
2023-03-24T13:41:52.194Z,25.30
2023-03-24T13:44:57.095Z,25.15
2023-03-24T13:48:11.522Z,24.18
2023-03-24T13:51:33.023Z,23.98
2023-03-24T13:54:39.066Z,23.88
2023-03-24T13:57:43.151Z,24.76
2023-03-24T14:01:06.409Z,25.21
2023-03-24T14:04:29.140Z,25.44
2023-03-24T14:07:40.352Z,25.76
2023-03-24T14:10:51.679Z,25.58
2023-03-24T14:13:54.630Z,26.27
2023-03-24T14:17:06.226Z,25.15
2023-03-24T14:20:11.269Z,25.19
2023-03-24T14:23:31.818Z,24.74
2023-03-24T14:26:35.061Z,23.98
2023-03-24T14:29:52.500Z,23.84
2023-03-24T14:32:57.643Z,23.62
2023-03-24T14:36:12.013Z,23.03
2023-03-24T14:39:45.610Z,22.73
2023-03-24T14:42:48.335Z,22.59
2023-03-24T14:46:05.119Z,22.63
2023-03-24T14:49:30.513Z,22.44
2023-03-24T14:52:39.689Z,22.44
2023-03-24T14:55:43.625Z,22.38
2023-03-24T14:58:50.743Z,22.46
2023-03-24T15:02:01.528Z,22.71
2023-03-24T15:05:21.897Z,22.74
2023-03-24T15:08:27.328Z,22.63
2023-03-24T15:11:39.464Z,22.43
2023-03-24T15:14:43.945Z,22.18
2023-03-24T15:17:47.132Z,21.90
2023-03-24T15:20:51.246Z,21.80
2023-03-24T15:23:55.727Z,21.74
2023-03-24T15:27:06.982Z,21.67
2023-03-24T15:30:15.136Z,21.57
2023-03-24T15:33:18.194Z,21.62
2023-03-24T15:36:23.006Z,21.50
2023-03-24T15:39:28.864Z,21.56
2023-03-24T15:42:31.424Z,21.43
2023-03-24T15:46:01.138Z,21.45
2023-03-24T15:49:24.299Z,21.35
2023-03-24T15:52:35.582Z,21.20
2023-03-24T15:55:38.200Z,21.18
2023-03-24T15:58:49.600Z,21.06
2023-03-24T16:01:52.414Z,21.00
2023-03-24T16:05:10.709Z,20.92
2023-03-24T16:08:36.103Z,20.77
2023-03-24T16:11:39.128Z,20.67
2023-03-24T16:14:41.634Z,20.51
2023-03-24T16:17:44.760Z,20.38
2023-03-24T16:20:47.724Z,20.28
2023-03-24T16:23:53.565Z,20.15
2023-03-24T16:26:56.173Z,20.08
2023-03-24T16:29:58.758Z,19.98
2023-03-24T16:33:01.327Z,19.89
2023-03-24T16:36:04.047Z,19.87
2023-03-24T16:39:19.192Z,19.82
2023-03-24T16:42:21.746Z,19.77
2023-03-24T16:45:24.259Z,19.72
2023-03-24T16:48:27.016Z,19.61
2023-03-24T16:51:29.927Z,19.52
2023-03-24T16:54:32.479Z,19.38
2023-03-24T16:57:35.739Z,19.32
2023-03-24T17:00:39.690Z,19.27
2023-03-24T17:03:49.847Z,19.23
2023-03-24T17:06:54.413Z,19.09
2023-03-24T17:09:57.104Z,19.00
2023-03-24T17:12:59.791Z,18.86
2023-03-24T17:16:02.340Z,18.81
2023-03-24T17:19:06.807Z,18.69
2023-03-24T17:22:12.687Z,18.59
2023-03-24T17:25:18.488Z,18.43
2023-03-24T17:28:22.080Z,18.38
2023-03-24T17:31:24.811Z,18.24
2023-03-24T17:34:27.781Z,18.12
2023-03-24T17:37:30.924Z,17.96
2023-03-24T17:40:33.757Z,17.81
2023-03-24T17:43:36.288Z,17.72
2023-03-24T17:46:39.012Z,17.70
2023-03-24T17:49:41.590Z,17.54
2023-03-24T17:52:47.620Z,17.53
2023-03-24T17:55:52.572Z,17.44
2023-03-24T17:58:56.406Z,17.28
2023-03-24T18:01:58.989Z,17.08
2023-03-24T18:05:02.267Z,16.85
2023-03-24T18:08:05.982Z,16.65
2023-03-24T18:11:11.079Z,16.39
2023-03-24T18:14:14.171Z,16.21
2023-03-24T18:17:16.913Z,16.02
2023-03-24T18:20:19.765Z,15.84
2023-03-24T18:23:22.505Z,15.69
2023-03-24T18:26:26.381Z,15.62
2023-03-24T18:29:28.904Z,15.52
2023-03-24T18:32:34.016Z,15.48
2023-03-24T18:35:36.814Z,15.47
2023-03-24T18:38:40.173Z,15.53
2023-03-24T18:41:43.146Z,15.55
2023-03-24T18:44:46.020Z,15.53
2023-03-24T18:47:49.141Z,15.45
2023-03-24T18:50:53.059Z,15.35
2023-03-24T18:53:57.700Z,15.31
2023-03-24T18:57:02.215Z,15.22
2023-03-24T19:00:09.777Z,15.15
2023-03-24T19:03:13.408Z,15.14
2023-03-24T19:06:17.092Z,15.15
2023-03-24T19:09:22.300Z,15.13
2023-03-24T19:12:25.273Z,15.18
2023-03-24T19:15:31.807Z,15.19
2023-03-24T19:18:36.457Z,15.22
2023-03-24T19:21:40.549Z,15.26
2023-03-24T19:24:43.287Z,15.33
2023-03-24T19:27:45.831Z,15.43
2023-03-24T19:30:48.929Z,15.43
2023-03-24T19:33:53.670Z,15.44
2023-03-24T19:36:56.752Z,15.45
2023-03-24T19:40:00.238Z,15.40
2023-03-24T19:43:03.629Z,15.44
2023-03-24T19:46:07.196Z,15.44
2023-03-24T19:49:10.224Z,15.50
2023-03-24T19:52:13.314Z,15.48
2023-03-24T19:55:20.747Z,15.48
2023-03-24T19:58:24.258Z,15.49
2023-03-24T20:01:28.866Z,15.49
2023-03-24T20:04:31.597Z,15.49
2023-03-24T20:07:34.588Z,15.49
2023-03-24T20:10:39.964Z,15.45
2023-03-24T20:13:42.416Z,15.43
2023-03-24T20:16:44.890Z,15.46
2023-03-24T20:19:48.203Z,15.49
2023-03-24T20:22:51.315Z,15.54
2023-03-24T20:25:54.191Z,15.57
2023-03-24T20:28:57.741Z,15.56
2023-03-24T20:32:00.394Z,15.72
2023-03-24T20:35:05.433Z,15.79
2023-03-24T20:38:08.219Z,16.17
2023-03-24T20:41:10.873Z,16.34
2023-03-24T20:44:14.393Z,16.43
2023-03-24T20:47:17.311Z,16.44
2023-03-24T20:50:20.580Z,16.36
2023-03-24T20:53:24.941Z,16.28
2023-03-24T20:56:28.366Z,16.17
2023-03-24T20:59:31.351Z,16.13
2023-03-24T21:02:34.222Z,16.09
2023-03-24T21:05:36.994Z,16.17
2023-03-24T21:08:43.250Z,16.08
2023-03-24T21:11:48.078Z,16.09
2023-03-24T21:14:51.427Z,16.19
2023-03-24T21:17:54.771Z,16.29
2023-03-24T21:20:58.298Z,16.27
2023-03-24T21:24:00.921Z,16.23
2023-03-24T21:27:03.460Z,16.16
2023-03-24T21:30:08.177Z,16.11
2023-03-24T21:33:11.376Z,16.15
2023-03-24T21:36:14.537Z,16.07
2023-03-24T21:39:17.358Z,16.13
2023-03-24T21:42:22.797Z,16.19
2023-03-24T21:45:27.567Z,16.16
2023-03-24T21:48:32.912Z,16.22
2023-03-24T21:51:36.805Z,16.07
2023-03-24T21:54:39.576Z,16.10
2023-03-24T21:57:43.138Z,16.16
2023-03-24T22:00:47.612Z,16.06
2023-03-24T22:03:51.007Z,16.12
2023-03-24T22:06:54.526Z,16.13
2023-03-24T22:09:57.175Z,16.13
2023-03-24T22:13:00.307Z,16.16
2023-03-24T22:16:04.193Z,16.09
2023-03-24T22:19:06.759Z,16.13
2023-03-24T22:22:09.650Z,16.08
2023-03-24T22:25:15.085Z,15.97
2023-03-24T22:28:18.289Z,16.01
2023-03-24T22:31:23.176Z,16.00
2023-03-24T22:34:25.910Z,16.00
2023-03-24T22:37:29.467Z,15.95
2023-03-24T22:40:32.072Z,15.85
2023-03-24T22:43:35.980Z,15.83
2023-03-24T22:46:38.699Z,15.73
2023-03-24T22:49:41.675Z,15.72
2023-03-24T22:52:44.219Z,15.69
2023-03-24T22:55:46.957Z,15.58
2023-03-24T22:58:50.314Z,15.57
2023-03-24T23:02:06.506Z,15.58
2023-03-24T23:05:11.788Z,15.49
2023-03-24T23:08:16.736Z,15.45
2023-03-24T23:11:19.593Z,15.49
2023-03-24T23:14:22.210Z,15.48
2023-03-24T23:17:25.179Z,15.46
2023-03-24T23:20:28.437Z,15.46
2023-03-24T23:23:31.638Z,15.42
2023-03-24T23:26:34.286Z,15.40
2023-03-24T23:29:41.112Z,15.34
2023-03-24T23:32:44.296Z,15.23
2023-03-24T23:35:50.413Z,15.10
2023-03-24T23:38:54.665Z,15.01
2023-03-24T23:41:58.505Z,14.92
2023-03-24T23:45:01.152Z,14.83
2023-03-24T23:48:04.549Z,14.76
2023-03-24T23:51:07.965Z,14.68
2023-03-24T23:54:11.063Z,14.62
2023-03-24T23:57:13.649Z,14.55
